KAIK/AIK METAR and TAF weather

Enter ICAO airport designator
Station Type Date Time Source
KAIK METAR 2021/01/17 19:15 UTC NOAA

KAIK 171915Z AUTO 22011G14KT 10SM SCT050 10/M03 A2992 RMK AO2 T00991025


Station Type Date Time Source
KAIK Decoded METAR 2021/01/17 19:15 UTC NOAA

Station name not available
Jan 17, 2021 - 02:15 PM EST / 2021.01.17 1915 UTC
Wind: from the SW (220 degrees) at 13 MPH (11 KT) gusting to 16 MPH (14 KT):0
Visibility: 10 mile(s):0
Sky conditions: partly cloudy
Temperature: 49.8 F (9.9 C)
Dew Point: 27.5 F (-2.5 C)
Relative Humidity: 41%
Pressure (altimeter): 29.92 in. Hg (1013 hPa)
ob: KAIK 171915Z AUTO 22011G14KT 10SM SCT050 10/M03 A2992 RMK AO2 T00991025
cycle: 19

Station Type Date Time Source
KAIK TAF UTC NOAA

Error!

Example: see airport list